createdAt,value
2023-07-11T00:01:11.107Z,19.69
2023-07-11T00:03:42.534Z,19.64
2023-07-11T00:06:14.737Z,19.65
2023-07-11T00:08:44.324Z,19.59
2023-07-11T00:11:13.630Z,19.61
2023-07-11T00:13:41.739Z,19.55
2023-07-11T00:16:13.805Z,19.52
2023-07-11T00:18:42.365Z,19.62
2023-07-11T00:21:10.828Z,19.61
2023-07-11T00:23:38.925Z,19.60
2023-07-11T00:26:08.590Z,19.48
2023-07-11T00:28:36.867Z,19.53
2023-07-11T00:31:05.024Z,19.46
2023-07-11T00:33:33.154Z,19.39
2023-07-11T00:36:01.155Z,19.45
2023-07-11T00:38:29.254Z,19.39
2023-07-11T00:40:58.872Z,19.47
2023-07-11T00:43:28.208Z,19.55
2023-07-11T00:46:05.172Z,19.52
2023-07-11T00:48:36.972Z,19.52
2023-07-11T00:51:07.510Z,19.52
2023-07-11T00:53:36.498Z,19.47
2023-07-11T00:56:08.021Z,19.47
2023-07-11T00:58:40.893Z,19.45
2023-07-11T01:01:09.988Z,19.49
2023-07-11T01:03:38.460Z,19.55
2023-07-11T01:06:12.905Z,19.50
2023-07-11T01:08:41.396Z,19.53
2023-07-11T01:11:09.474Z,19.56
2023-07-11T01:13:39.215Z,19.55
2023-07-11T01:16:07.834Z,19.54
2023-07-11T01:18:36.935Z,19.60
2023-07-11T01:21:06.412Z,19.60
2023-07-11T01:23:36.491Z,19.68
2023-07-11T01:26:07.987Z,19.64
2023-07-11T01:28:36.600Z,19.68
2023-07-11T01:31:05.391Z,19.72
2023-07-11T01:33:34.090Z,19.80
2023-07-11T01:36:04.101Z,19.78
2023-07-11T01:38:33.016Z,19.74
2023-07-11T01:41:02.517Z,19.85
2023-07-11T01:43:30.905Z,19.78
2023-07-11T01:45:59.141Z,19.81
2023-07-11T01:48:30.906Z,19.83
2023-07-11T01:50:58.914Z,19.79
2023-07-11T01:53:27.420Z,19.84
2023-07-11T01:55:59.640Z,19.83
2023-07-11T01:58:30.337Z,19.77
2023-07-11T02:00:59.316Z,19.82
2023-07-11T02:03:27.869Z,19.77
2023-07-11T02:05:57.059Z,19.80
2023-07-11T02:08:25.177Z,19.80
2023-07-11T02:10:53.304Z,19.79
2023-07-11T02:13:21.343Z,19.80
2023-07-11T02:15:50.855Z,19.80
2023-07-11T02:18:21.200Z,19.87
2023-07-11T02:20:49.857Z,19.87
2023-07-11T02:23:18.486Z,19.90
2023-07-11T02:25:46.493Z,19.89
2023-07-11T02:28:14.481Z,19.91
2023-07-11T02:30:43.153Z,19.91
2023-07-11T02:33:12.637Z,19.92
2023-07-11T02:35:40.693Z,19.90
2023-07-11T02:38:08.750Z,19.97
2023-07-11T02:40:36.730Z,19.92
2023-07-11T02:43:04.719Z,19.95
2023-07-11T02:45:32.741Z,19.99
2023-07-11T02:48:00.806Z,19.96
2023-07-11T02:50:30.240Z,19.97
2023-07-11T02:52:58.290Z,19.93
2023-07-11T02:55:26.366Z,19.92
2023-07-11T02:57:54.397Z,19.95
2023-07-11T03:00:22.553Z,19.92
2023-07-11T03:02:50.721Z,19.97
2023-07-11T03:05:18.726Z,19.88
2023-07-11T03:07:48.077Z,19.88
2023-07-11T03:10:16.378Z,19.87
2023-07-11T03:12:44.415Z,19.86
2023-07-11T03:15:12.722Z,19.85
2023-07-11T03:17:40.788Z,19.84
2023-07-11T03:20:10.071Z,19.85
2023-07-11T03:22:38.190Z,19.83
2023-07-11T03:25:08.463Z,19.83
2023-07-11T03:27:36.459Z,19.85
2023-07-11T03:30:05.260Z,19.86
2023-07-11T03:32:33.674Z,19.84
2023-07-11T03:35:03.703Z,19.87
2023-07-11T03:37:32.795Z,19.88
2023-07-11T03:40:01.274Z,19.84
2023-07-11T03:42:31.668Z,19.77
2023-07-11T03:44:59.855Z,19.79
2023-07-11T03:47:27.889Z,19.74
2023-07-11T03:49:57.012Z,19.79
2023-07-11T03:52:25.036Z,19.73
2023-07-11T03:54:53.039Z,19.72
2023-07-11T03:57:21.191Z,19.66
2023-07-11T03:59:51.315Z,19.63
2023-07-11T04:02:19.497Z,19.52
2023-07-11T04:04:48.353Z,19.55
2023-07-11T04:07:16.954Z,19.58
2023-07-11T04:09:45.312Z,19.57
2023-07-11T04:12:13.466Z,19.54
2023-07-11T04:14:41.715Z,19.53
2023-07-11T04:17:11.133Z,19.52
2023-07-11T04:19:39.152Z,19.51
2023-07-11T04:22:07.167Z,19.51
2023-07-11T04:24:35.588Z,19.46
2023-07-11T04:27:03.768Z,19.43
2023-07-11T04:29:32.097Z,19.46
2023-07-11T04:32:00.097Z,19.42
2023-07-11T04:34:29.457Z,19.39
2023-07-11T04:36:57.464Z,19.43
2023-07-11T04:39:25.479Z,19.39
2023-07-11T04:41:53.527Z,19.44
2023-07-11T04:44:21.536Z,19.44
2023-07-11T04:46:49.667Z,19.43
2023-07-11T04:49:17.690Z,19.44
2023-07-11T04:51:47.090Z,19.42
2023-07-11T04:54:15.068Z,19.39
2023-07-11T04:56:43.555Z,19.40
2023-07-11T04:59:11.720Z,19.42
2023-07-11T05:01:40.008Z,19.39
2023-07-11T05:04:08.177Z,19.39
2023-07-11T05:06:36.220Z,19.38
2023-07-11T05:09:05.725Z,19.35
2023-07-11T05:11:33.886Z,19.28
2023-07-11T05:14:02.007Z,19.01
2023-07-11T05:16:32.924Z,19.15
2023-07-11T05:19:01.466Z,18.95
2023-07-11T05:21:30.075Z,18.92
2023-07-11T05:23:58.102Z,18.88
2023-07-11T05:26:27.557Z,18.84
2023-07-11T05:28:55.629Z,18.83
2023-07-11T05:31:23.772Z,18.83
2023-07-11T05:33:54.339Z,18.82
2023-07-11T05:36:32.315Z,18.75
2023-07-11T05:39:01.975Z,18.73
2023-07-11T05:41:32.088Z,18.59
2023-07-11T05:44:00.167Z,18.55
2023-07-11T05:46:29.150Z,18.46
2023-07-11T05:48:58.400Z,18.44
2023-07-11T05:51:26.850Z,18.37
2023-07-11T05:53:55.024Z,18.39
2023-07-11T05:56:23.158Z,18.38
2023-07-11T05:58:54.469Z,18.41
2023-07-11T06:01:25.414Z,18.47
2023-07-11T06:04:05.045Z,18.50
2023-07-11T06:06:36.405Z,18.54
2023-07-11T06:09:06.413Z,18.54
2023-07-11T06:11:35.023Z,18.51
2023-07-11T06:14:05.354Z,18.49
2023-07-11T06:16:33.981Z,18.46
2023-07-11T06:19:02.706Z,18.49
2023-07-11T06:21:31.195Z,18.50
2023-07-11T06:24:00.308Z,18.47
2023-07-11T06:26:29.081Z,18.43
2023-07-11T06:29:05.308Z,18.49
2023-07-11T06:31:33.730Z,18.57
2023-07-11T06:34:02.384Z,18.65
2023-07-11T06:36:31.252Z,18.72
2023-07-11T06:39:00.208Z,18.76
2023-07-11T06:41:30.212Z,18.81
2023-07-11T06:43:59.410Z,18.93
2023-07-11T06:46:29.488Z,18.94
2023-07-11T06:49:00.054Z,19.00
2023-07-11T06:51:30.278Z,19.04
2023-07-11T06:53:58.894Z,19.14
2023-07-11T06:56:29.566Z,19.19
2023-07-11T06:58:57.700Z,19.25
2023-07-11T07:01:37.567Z,19.18
2023-07-11T07:04:08.035Z,19.17
2023-07-11T07:06:36.913Z,19.23
2023-07-11T07:09:06.092Z,19.27
2023-07-11T07:11:36.588Z,19.31
2023-07-11T07:14:09.246Z,19.43
2023-07-11T07:16:38.972Z,19.55
2023-07-11T07:19:11.021Z,19.52
2023-07-11T07:21:39.416Z,19.61
2023-07-11T07:24:08.392Z,19.78
2023-07-11T07:26:36.689Z,19.85
2023-07-11T07:29:04.650Z,19.91
2023-07-11T07:31:32.903Z,20.06
2023-07-11T07:34:01.657Z,20.10
2023-07-11T07:36:31.552Z,20.35
2023-07-11T07:38:59.783Z,20.33
2023-07-11T07:41:28.382Z,20.20
2023-07-11T07:43:56.894Z,20.18
2023-07-11T07:46:25.180Z,20.16
2023-07-11T07:48:56.809Z,20.08
2023-07-11T07:51:34.884Z,20.09
2023-07-11T07:54:05.812Z,20.05
2023-07-11T07:56:42.168Z,20.03
2023-07-11T07:59:10.318Z,20.05
2023-07-11T08:01:38.514Z,20.02
2023-07-11T08:04:07.373Z,20.11
2023-07-11T08:06:37.490Z,20.15
2023-07-11T08:09:08.108Z,20.23
2023-07-11T08:11:40.305Z,20.34
2023-07-11T08:14:10.429Z,20.52
2023-07-11T08:16:40.872Z,20.62
2023-07-11T08:19:09.530Z,20.64
2023-07-11T08:21:38.956Z,20.61
2023-07-11T08:24:09.517Z,20.69
2023-07-11T08:26:38.065Z,20.80
2023-07-11T08:29:24.694Z,20.81
2023-07-11T08:31:59.486Z,20.93
2023-07-11T08:34:28.196Z,21.13
2023-07-11T08:36:56.973Z,21.33
2023-07-11T08:39:27.025Z,21.49
2023-07-11T08:41:59.158Z,21.52
2023-07-11T08:44:37.156Z,21.52
2023-07-11T08:47:09.628Z,21.35
2023-07-11T08:49:47.875Z,21.58
2023-07-11T08:52:20.158Z,21.52
2023-07-11T08:54:57.406Z,21.25
2023-07-11T08:57:36.040Z,21.75
2023-07-11T09:00:14.463Z,21.97
2023-07-11T09:02:53.586Z,22.15
2023-07-11T09:05:48.043Z,22.19
2023-07-11T09:08:27.831Z,22.53
2023-07-11T09:11:12.562Z,22.91
2023-07-11T09:13:57.089Z,23.11
2023-07-11T09:16:39.895Z,23.04
2023-07-11T09:19:37.368Z,22.74
2023-07-11T09:22:53.200Z,23.03
2023-07-11T09:38:45.088Z,23.18
2023-07-11T09:42:10.426Z,22.94
2023-07-11T09:53:56.186Z,23.04
2023-07-11T09:56:45.690Z,22.95
2023-07-11T09:59:15.316Z,22.92
2023-07-11T10:01:44.182Z,23.21
2023-07-11T10:04:18.315Z,23.37
2023-07-11T10:06:55.318Z,23.72
2023-07-11T10:09:25.637Z,24.02
2023-07-11T10:11:57.322Z,24.23
2023-07-11T10:14:32.839Z,23.91
2023-07-11T10:17:04.264Z,24.28
2023-07-11T10:19:32.619Z,24.12
2023-07-11T10:22:01.607Z,24.22
2023-07-11T10:24:39.650Z,24.66
2023-07-11T10:27:15.829Z,24.46
2023-07-11T10:29:48.147Z,24.43
2023-07-11T10:32:28.006Z,24.11
2023-07-11T10:35:00.208Z,24.18
2023-07-11T10:37:34.405Z,24.23
2023-07-11T10:40:10.399Z,23.97
2023-07-11T10:42:45.273Z,23.99
2023-07-11T10:45:15.996Z,24.04
2023-07-11T10:47:53.975Z,23.81
2023-07-11T10:50:29.721Z,24.22
2023-07-11T10:53:02.366Z,24.41
2023-07-11T10:55:45.957Z,24.37
2023-07-11T10:58:19.704Z,24.41
2023-07-11T11:00:57.587Z,24.31
2023-07-11T11:03:38.405Z,24.23
2023-07-11T11:06:30.808Z,24.54
2023-07-11T11:09:08.481Z,24.54
2023-07-11T11:11:49.080Z,24.25
2023-07-11T11:14:24.842Z,24.23
2023-07-11T11:17:07.481Z,24.38
2023-07-11T11:19:50.576Z,24.06
2023-07-11T11:22:28.746Z,24.27
2023-07-11T11:25:01.575Z,24.33
2023-07-11T11:27:50.588Z,24.28
2023-07-11T11:30:32.303Z,24.41
2023-07-11T11:33:13.499Z,24.29
2023-07-11T11:35:54.402Z,24.42
2023-07-11T11:38:32.700Z,24.53
2023-07-11T11:41:11.827Z,23.81
2023-07-11T11:46:26.243Z,24.41
2023-07-11T11:46:33.036Z,24.39
2023-07-11T11:51:34.265Z,24.58
2023-07-11T11:54:08.499Z,24.52
2023-07-11T11:56:42.774Z,24.69
2023-07-11T11:59:19.015Z,24.29
2023-07-11T12:02:02.259Z,24.40
2023-07-11T12:04:36.558Z,24.57
2023-07-11T12:07:08.456Z,24.47
2023-07-11T12:09:42.441Z,25.00
2023-07-11T12:12:12.787Z,25.01
2023-07-11T12:14:44.771Z,25.63
2023-07-11T12:17:48.565Z,25.62
2023-07-11T12:20:22.731Z,25.84
2023-07-11T12:26:12.345Z,25.60
2023-07-11T12:28:42.798Z,26.17
2023-07-11T12:31:20.082Z,26.02
2023-07-11T12:34:01.188Z,26.07
2023-07-11T12:36:56.313Z,27.09
2023-07-11T12:39:37.685Z,27.49
2023-07-11T12:42:27.686Z,27.45
2023-07-11T12:44:56.201Z,27.37
2023-07-11T12:47:25.124Z,26.97
2023-07-11T12:49:55.530Z,27.14
2023-07-11T12:52:25.282Z,27.69
2023-07-11T12:54:53.277Z,27.94
2023-07-11T12:57:24.449Z,28.14
2023-07-11T12:59:52.526Z,28.27
2023-07-11T13:02:25.278Z,27.84
2023-07-11T13:04:58.299Z,27.86
2023-07-11T13:07:29.426Z,27.81
2023-07-11T13:10:00.535Z,27.96
2023-07-11T13:12:34.333Z,28.22
2023-07-11T13:15:07.769Z,28.87
2023-07-11T13:17:35.934Z,28.24
2023-07-11T13:20:08.304Z,27.80
2023-07-11T13:22:37.075Z,27.82
2023-07-11T13:25:16.151Z,27.23
2023-07-11T13:27:48.490Z,27.21
2023-07-11T13:30:22.365Z,27.14
2023-07-11T13:32:55.292Z,26.36
2023-07-11T13:35:35.795Z,25.99
2023-07-11T13:38:04.132Z,26.07
2023-07-11T13:40:36.507Z,25.91
2023-07-11T13:43:14.822Z,25.63
2023-07-11T13:45:43.254Z,25.63
2023-07-11T13:48:16.012Z,25.53
2023-07-11T13:50:45.993Z,25.08
2023-07-11T13:53:17.178Z,24.94
2023-07-11T13:55:51.873Z,24.87
2023-07-11T13:58:20.808Z,24.94
2023-07-11T14:00:52.548Z,24.74
2023-07-11T14:03:22.984Z,24.57
2023-07-11T14:05:58.382Z,24.30
2023-07-11T14:08:27.659Z,23.63
2023-07-11T14:10:55.966Z,23.57
2023-07-11T14:13:25.991Z,23.63
2023-07-11T14:15:57.206Z,23.36
2023-07-11T14:18:25.633Z,23.14
2023-07-11T14:20:55.258Z,23.24
2023-07-11T14:23:25.516Z,23.19
2023-07-11T14:25:56.052Z,23.10
2023-07-11T14:28:24.963Z,22.84
2023-07-11T14:30:56.725Z,22.69
2023-07-11T14:33:26.206Z,22.66
2023-07-11T14:35:56.703Z,22.50
2023-07-11T14:38:26.753Z,22.38
2023-07-11T14:40:54.972Z,22.37
2023-07-11T14:43:27.381Z,22.22
2023-07-11T14:45:56.097Z,22.35
2023-07-11T14:48:27.374Z,22.37
2023-07-11T14:51:00.912Z,22.39
2023-07-11T14:53:35.799Z,22.41
2023-07-11T14:58:38.553Z,22.18
2023-07-11T15:01:12.821Z,22.12
2023-07-11T15:05:58.770Z,22.02
2023-07-11T15:06:54.140Z,21.99
2023-07-11T15:11:56.614Z,21.92
2023-07-11T15:16:58.482Z,22.08
2023-07-11T15:19:28.411Z,22.12
2023-07-11T15:22:02.233Z,22.21
2023-07-11T15:24:32.680Z,22.20
2023-07-11T15:27:00.697Z,22.20
2023-07-11T15:29:28.705Z,22.24
2023-07-11T15:31:56.715Z,22.28
2023-07-11T15:34:27.442Z,22.26
2023-07-11T15:36:57.254Z,22.12
2023-07-11T15:39:25.248Z,22.05
2023-07-11T15:41:56.832Z,21.92
2023-07-11T15:44:44.427Z,21.90
2023-07-11T15:47:15.024Z,21.75
2023-07-11T15:49:43.321Z,21.89
2023-07-11T15:52:12.643Z,21.87
2023-07-11T15:54:41.553Z,21.84
2023-07-11T15:57:22.535Z,21.99
2023-07-11T15:59:50.631Z,21.63
2023-07-11T16:02:21.625Z,21.58
2023-07-11T16:04:49.737Z,21.76
2023-07-11T16:07:21.768Z,21.68
2023-07-11T16:09:50.065Z,21.37
2023-07-11T16:12:18.568Z,21.37
2023-07-11T16:14:47.345Z,21.35
2023-07-11T16:17:17.556Z,21.25
2023-07-11T16:19:47.980Z,21.31
2023-07-11T16:22:20.480Z,21.38
2023-07-11T16:24:49.282Z,21.32
2023-07-11T16:27:18.689Z,21.34
2023-07-11T16:29:48.439Z,21.24
2023-07-11T16:32:17.464Z,21.04
2023-07-11T16:34:46.041Z,21.21
2023-07-11T16:37:21.291Z,21.23
2023-07-11T16:39:50.408Z,21.30
2023-07-11T16:42:22.114Z,21.32
2023-07-11T16:44:50.657Z,21.42
2023-07-11T16:47:19.311Z,21.55
2023-07-11T16:49:51.284Z,21.37
2023-07-11T16:52:20.642Z,21.42
2023-07-11T16:54:49.824Z,21.41
2023-07-11T16:57:21.851Z,21.38
2023-07-11T16:59:50.006Z,21.36
2023-07-11T17:02:24.277Z,21.30
2023-07-11T17:04:53.224Z,21.35
2023-07-11T17:07:30.082Z,21.19
2023-07-11T17:09:58.612Z,21.30
2023-07-11T17:12:27.678Z,21.15
2023-07-11T17:14:55.732Z,21.19
2023-07-11T17:17:26.499Z,21.22
2023-07-11T17:19:57.094Z,21.22
2023-07-11T17:22:27.048Z,21.34
2023-07-11T17:24:55.374Z,21.32
2023-07-11T17:27:26.361Z,21.34
2023-07-11T17:29:55.303Z,21.40
2023-07-11T17:32:25.682Z,21.25
2023-07-11T17:34:54.899Z,21.20
2023-07-11T17:37:29.901Z,21.16
2023-07-11T17:39:58.496Z,21.06
2023-07-11T17:42:28.694Z,21.10
2023-07-11T17:44:59.261Z,21.10
2023-07-11T17:49:59.783Z,20.80
2023-07-11T17:52:31.196Z,20.71
2023-07-11T17:54:59.755Z,20.58
2023-07-11T17:57:31.143Z,20.65
2023-07-11T17:59:59.190Z,20.62
2023-07-11T18:02:38.402Z,20.63
2023-07-11T18:05:15.490Z,20.39
2023-07-11T18:07:46.116Z,20.42
2023-07-11T18:10:24.316Z,20.47
2023-07-11T18:13:07.507Z,20.50
2023-07-11T18:15:37.947Z,20.38
2023-07-11T18:18:07.643Z,20.35
2023-07-11T18:20:35.643Z,20.21
2023-07-11T18:23:05.626Z,20.34
2023-07-11T18:25:33.644Z,20.39
2023-07-11T18:28:01.645Z,20.34
2023-07-11T18:30:29.732Z,20.25
2023-07-11T18:32:58.520Z,20.22
2023-07-11T18:35:26.806Z,20.19
2023-07-11T18:37:55.107Z,20.23
2023-07-11T18:40:28.810Z,20.24
2023-07-11T18:42:57.865Z,20.19
2023-07-11T18:45:51.022Z,20.23
2023-07-11T18:48:19.527Z,20.18
2023-07-11T18:50:48.562Z,20.11
2023-07-11T18:53:17.644Z,20.09
2023-07-11T18:55:48.408Z,20.05
2023-07-11T18:58:18.726Z,19.88
2023-07-11T19:00:49.770Z,19.88
2023-07-11T19:03:19.340Z,19.91
2023-07-11T19:05:48.478Z,19.91
2023-07-11T19:08:21.404Z,19.83
2023-07-11T19:10:51.230Z,19.85
2023-07-11T19:13:19.427Z,19.82
2023-07-11T19:15:52.484Z,19.79
2023-07-11T19:18:23.184Z,19.81
2023-07-11T19:20:51.987Z,19.74
2023-07-11T19:23:22.742Z,19.75
2023-07-11T19:25:52.490Z,19.76
2023-07-11T19:28:22.409Z,19.74
2023-07-11T19:30:52.360Z,19.77
2023-07-11T19:33:21.328Z,19.63
2023-07-11T19:35:58.265Z,19.63
2023-07-11T19:38:34.181Z,19.53
2023-07-11T19:41:03.823Z,19.63
2023-07-11T19:43:35.237Z,19.56
2023-07-11T19:46:24.422Z,19.52
2023-07-11T19:48:53.628Z,19.43
2023-07-11T19:51:21.681Z,19.45
2023-07-11T19:53:49.638Z,19.34
2023-07-11T19:56:23.422Z,19.39
2023-07-11T19:58:51.793Z,19.35
2023-07-11T20:01:19.804Z,19.25
2023-07-11T20:03:48.142Z,19.23
2023-07-11T20:06:19.807Z,19.27
2023-07-11T20:08:50.202Z,19.27
2023-07-11T20:11:19.850Z,19.27
2023-07-11T20:13:48.117Z,19.17
2023-07-11T20:16:29.815Z,19.19
2023-07-11T20:18:58.017Z,19.24
2023-07-11T20:21:26.749Z,19.20
2023-07-11T20:23:57.140Z,19.11
2023-07-11T20:26:29.193Z,19.18
2023-07-11T20:29:19.357Z,19.14
2023-07-11T20:32:33.413Z,19.14
2023-07-11T20:35:01.555Z,19.16
2023-07-11T20:37:29.633Z,19.13
2023-07-11T20:39:57.776Z,19.20
2023-07-11T20:45:00.027Z,19.17
2023-07-11T20:47:28.199Z,19.16
2023-07-11T20:49:57.101Z,18.99
2023-07-11T20:52:25.405Z,19.07
2023-07-11T20:55:22.901Z,19.04
2023-07-11T20:57:53.227Z,18.99
2023-07-11T21:00:24.853Z,18.97
2023-07-11T21:02:53.905Z,18.95
2023-07-11T21:05:24.609Z,18.93
2023-07-11T21:07:53.868Z,18.82
2023-07-11T21:10:30.190Z,18.80
2023-07-11T21:12:59.857Z,18.79
2023-07-11T21:15:28.318Z,18.66
2023-07-11T21:17:56.342Z,18.66
2023-07-11T21:20:31.492Z,18.66
2023-07-11T21:23:00.236Z,18.68
2023-07-11T21:25:28.846Z,18.63
2023-07-11T21:27:57.417Z,18.58
2023-07-11T21:30:39.302Z,18.53
2023-07-11T21:33:09.454Z,18.44
2023-07-11T21:35:39.196Z,18.46
2023-07-11T21:38:16.399Z,18.47
2023-07-11T21:40:44.476Z,18.45
2023-07-11T21:43:12.544Z,18.37
2023-07-11T21:45:42.143Z,18.36
2023-07-11T21:48:17.902Z,18.29
2023-07-11T21:50:51.182Z,18.31
2023-07-11T21:53:20.866Z,18.25
2023-07-11T21:55:50.504Z,18.32
2023-07-11T21:58:20.821Z,18.27
2023-07-11T22:00:51.140Z,18.28
2023-07-11T22:03:21.112Z,18.26
2023-07-11T22:05:51.286Z,18.14
2023-07-11T22:08:22.317Z,18.15
2023-07-11T22:10:50.953Z,18.13
2023-07-11T22:13:21.381Z,18.10
2023-07-11T22:15:51.227Z,18.13
2023-07-11T22:18:21.544Z,18.19
2023-07-11T22:20:50.265Z,18.17
2023-07-11T22:23:19.051Z,18.14
2023-07-11T22:25:50.113Z,18.15
2023-07-11T22:28:21.362Z,18.20
2023-07-11T22:30:53.051Z,18.17
2023-07-11T22:33:21.866Z,18.16
2023-07-11T22:35:50.043Z,18.12
2023-07-11T22:38:18.712Z,18.11
2023-07-11T22:40:48.258Z,18.13
2023-07-11T22:43:19.624Z,18.12
2023-07-11T22:45:52.591Z,18.15
2023-07-11T22:48:24.054Z,18.16
2023-07-11T22:50:53.957Z,18.12
2023-07-11T22:53:24.266Z,18.15
2023-07-11T22:55:53.942Z,18.14
2023-07-11T22:58:25.846Z,18.14
2023-07-11T23:00:56.300Z,18.13
2023-07-11T23:03:25.809Z,18.24
2023-07-11T23:05:56.981Z,18.12
2023-07-11T23:08:26.557Z,18.17
2023-07-11T23:10:54.553Z,18.13
2023-07-11T23:13:22.820Z,18.16
2023-07-11T23:15:52.608Z,18.10
2023-07-11T23:18:25.093Z,18.10
2023-07-11T23:20:55.146Z,18.12
2023-07-11T23:23:25.037Z,18.03
2023-07-11T23:25:54.563Z,18.07
2023-07-11T23:28:25.708Z,18.07
2023-07-11T23:30:55.415Z,18.03
2023-07-11T23:33:25.731Z,17.99
2023-07-11T23:35:56.670Z,17.97
2023-07-11T23:38:27.978Z,17.92
2023-07-11T23:40:57.472Z,18.00
2023-07-11T23:43:37.278Z,17.94
2023-07-11T23:46:17.631Z,17.93
2023-07-11T23:48:47.063Z,17.94
2023-07-11T23:51:15.129Z,17.96
2023-07-11T23:53:43.456Z,17.96
2023-07-11T23:56:17.995Z,17.96
2023-07-11T23:58:46.442Z,17.93
